Spencer, Iowa
Current Conditions -  °F | °C
As of 3:53 AM on Sunday 23 Nov 2014 (Local Time) from KSPW Reporting Station
Haze Haze  
Wind Chill:   Ceiling: Unl
Heat Index:   Visibility: 6mi
Dew Point:   Wind: 7mph
Humidity: 93%   Direction: 190°S
Pressure: 29.44"   Gusts: NA
Location:  43.14°N, 95.14°W
Report Text: KSPW 230953Z AUTO 19006KT 6SM BR SCT016 09/08 A2944 RMK AO2 SLP976 T00890078 TSNO
Loading
Personal Weather Stations






























Interactive Weather Map New forecast layout! Learn more

10-Day Weather Forecast

Advertisements
Track Severe Weather on mobile